createdAt,value
2019-02-21T00:02:25.921Z,55521.34
2019-02-21T00:04:56.375Z,55595.53
2019-02-21T00:07:26.971Z,55600.35
2019-02-21T00:09:57.501Z,55597.46
2019-02-21T00:12:28.084Z,55664.90
2019-02-21T00:14:58.609Z,55639.85
2019-02-21T00:17:29.219Z,55602.27
2019-02-21T00:20:00.202Z,55560.84
2019-02-21T00:22:31.344Z,55600.35
2019-02-21T00:25:02.098Z,55565.66
2019-02-21T00:27:32.629Z,55557.95
2019-02-21T00:30:03.084Z,55567.59
2019-02-21T00:32:33.646Z,55577.22
2019-02-21T00:35:04.198Z,55579.15
2019-02-21T00:37:34.773Z,55581.08
2019-02-21T00:40:05.935Z,55566.62
2019-02-21T00:42:36.459Z,55490.51
2019-02-21T00:45:07.187Z,55469.31
2019-02-21T00:47:37.699Z,55499.18
2019-02-21T00:50:08.257Z,55434.63
2019-02-21T00:52:38.845Z,55416.32
2019-02-21T00:55:09.592Z,55411.50
2019-02-21T00:57:40.463Z,55357.55
2019-02-21T01:00:13.498Z,55282.40
2019-02-21T01:02:44.020Z,55270.84
2019-02-21T01:05:14.945Z,55221.71
2019-02-21T01:07:45.493Z,55197.62
2019-02-21T01:10:16.034Z,55194.73
2019-02-21T01:12:46.603Z,55130.18
2019-02-21T01:15:17.393Z,55097.43
2019-02-21T01:17:48.213Z,55041.55
2019-02-21T01:20:18.702Z,55022.29
2019-02-21T01:22:49.236Z,55014.58
2019-02-21T01:25:19.836Z,54997.24
2019-02-21T01:27:50.296Z,54975.09
2019-02-21T01:30:20.891Z,54927.88
2019-02-21T01:32:51.412Z,54923.07
2019-02-21T01:35:21.980Z,54898.02
2019-02-21T01:37:52.942Z,54932.70
2019-02-21T01:40:23.524Z,54871.05
2019-02-21T01:42:53.987Z,54899.95
2019-02-21T01:45:24.577Z,54938.48
2019-02-21T01:47:55.110Z,54898.98
2019-02-21T01:50:25.739Z,54898.02
2019-02-21T01:52:56.189Z,54870.08
2019-02-21T01:55:27.007Z,54852.74
2019-02-21T01:57:57.527Z,54853.71
2019-02-21T02:00:27.990Z,54886.46
2019-02-21T02:02:59.192Z,54861.41
2019-02-21T02:05:29.827Z,54833.48
2019-02-21T02:08:00.721Z,54862.38
2019-02-21T02:10:31.201Z,54753.52
2019-02-21T02:13:02.170Z,54667.79
2019-02-21T02:15:32.942Z,54690.91
2019-02-21T02:18:03.456Z,54643.71
2019-02-21T02:20:33.948Z,54599.40
2019-02-21T02:23:04.488Z,54608.07
2019-02-21T02:25:35.100Z,54572.43
2019-02-21T02:28:05.954Z,54596.51
2019-02-21T02:30:36.648Z,54605.18
2019-02-21T02:33:07.164Z,54614.82
2019-02-21T02:35:37.803Z,54669.72
2019-02-21T02:38:08.605Z,54653.34
2019-02-21T02:40:39.491Z,54640.82
2019-02-21T02:43:09.970Z,54660.09
2019-02-21T02:45:41.610Z,54656.23
2019-02-21T02:48:12.150Z,54666.83
2019-02-21T02:50:42.653Z,54659.12
2019-02-21T02:53:13.617Z,54654.31
2019-02-21T02:55:44.168Z,54661.05
2019-02-21T02:58:14.821Z,54717.88
2019-02-21T03:00:45.278Z,54659.12
2019-02-21T03:03:16.157Z,54670.68
2019-02-21T03:05:46.713Z,54664.90
2019-02-21T03:08:17.278Z,54685.13
2019-02-21T03:10:47.812Z,54686.09
2019-02-21T03:13:18.400Z,54721.73
2019-02-21T03:15:48.861Z,54710.18
2019-02-21T03:18:19.450Z,54719.81
2019-02-21T03:20:49.966Z,54740.04
2019-02-21T03:23:20.949Z,54711.14
2019-02-21T03:25:51.612Z,54749.67
2019-02-21T03:28:22.164Z,54758.34
2019-02-21T03:30:52.979Z,54708.25
2019-02-21T03:33:23.935Z,54674.54
2019-02-21T03:35:54.802Z,54688.98
2019-02-21T03:38:25.789Z,54652.38
2019-02-21T03:40:56.625Z,54676.46
2019-02-21T03:43:27.889Z,54713.07
2019-02-21T03:45:58.385Z,54651.42
2019-02-21T03:48:28.938Z,54693.80
2019-02-21T03:50:59.380Z,54659.12
2019-02-21T03:53:30.315Z,54676.46
2019-02-21T03:56:01.216Z,54662.02
2019-02-21T03:58:31.758Z,54662.02
2019-02-21T04:01:02.256Z,54627.34
2019-02-21T04:03:32.711Z,54673.57
2019-02-21T04:06:03.209Z,54709.21
2019-02-21T04:08:33.708Z,54734.26
2019-02-21T04:11:04.339Z,54775.68
2019-02-21T04:13:34.810Z,54745.82
2019-02-21T04:16:06.579Z,54717.88
2019-02-21T04:18:37.119Z,54720.77
2019-02-21T04:21:07.604Z,54738.11
2019-02-21T04:23:38.137Z,54741.00
2019-02-21T04:26:08.750Z,54745.82
2019-02-21T04:28:39.649Z,54758.34
2019-02-21T04:31:10.181Z,54796.87
2019-02-21T04:33:40.652Z,54786.28
2019-02-21T04:36:11.267Z,54714.03
2019-02-21T04:38:42.479Z,54681.28
2019-02-21T04:41:13.053Z,54698.62
2019-02-21T04:43:43.574Z,54725.59
2019-02-21T04:46:14.212Z,54709.21
2019-02-21T04:48:44.744Z,54696.69
2019-02-21T04:51:16.504Z,54694.77
2019-02-21T04:53:47.039Z,54723.66
2019-02-21T04:56:17.647Z,54739.07
2019-02-21T04:58:48.265Z,54711.14
2019-02-21T05:01:18.788Z,54734.26
2019-02-21T05:03:49.346Z,54734.26
2019-02-21T05:06:20.546Z,54762.20
2019-02-21T05:08:51.454Z,54717.88
2019-02-21T05:11:22.011Z,54660.09
2019-02-21T05:13:52.553Z,54654.31
2019-02-21T05:16:23.015Z,54636.97
2019-02-21T05:18:53.910Z,54649.49
2019-02-21T05:21:24.475Z,54640.82
2019-02-21T05:23:55.108Z,54645.64
2019-02-21T05:26:33.733Z,54646.60
2019-02-21T05:29:05.745Z,54666.83
2019-02-21T05:31:44.026Z,54646.60
2019-02-21T05:34:42.768Z,54692.84
2019-02-21T05:37:32.209Z,54672.61
2019-02-21T05:40:20.297Z,54648.53
2019-02-21T05:43:12.853Z,54610.96
2019-02-21T05:46:20.766Z,54607.11
2019-02-21T05:49:13.005Z,54622.52
2019-02-21T05:51:50.868Z,54610.96
2019-02-21T05:54:32.849Z,54630.23
2019-02-21T05:57:20.954Z,54604.22
2019-02-21T06:00:05.531Z,54599.40
2019-02-21T06:02:52.516Z,54610.96
2019-02-21T06:05:26.157Z,54553.17
2019-02-21T06:08:24.867Z,54531.98
2019-02-21T06:11:13.338Z,54509.82
2019-02-21T06:13:51.626Z,54529.09
2019-02-21T06:16:40.265Z,54471.30
2019-02-21T06:19:29.693Z,54444.33
2019-02-21T06:22:19.165Z,54438.55
2019-02-21T06:25:11.688Z,54417.36
2019-02-21T06:27:58.376Z,54390.39
2019-02-21T06:30:35.756Z,54348.97
2019-02-21T06:33:06.683Z,54344.16
2019-02-21T06:35:37.243Z,54354.75
2019-02-21T06:38:08.128Z,54319.11
2019-02-21T06:40:39.079Z,54320.08
2019-02-21T06:43:09.925Z,54315.26
2019-02-21T06:45:40.413Z,54309.48
2019-02-21T06:48:10.957Z,54330.67
2019-02-21T06:50:41.560Z,54346.09
2019-02-21T06:53:12.102Z,54302.74
2019-02-21T06:55:42.639Z,54339.34
2019-02-21T06:58:13.400Z,54317.19
2019-02-21T07:00:46.168Z,54345.12
2019-02-21T07:03:16.370Z,54342.23
2019-02-21T07:05:47.119Z,54335.49
2019-02-21T07:08:18.843Z,54343.20
2019-02-21T07:10:49.391Z,54396.17
2019-02-21T07:13:26.596Z,54371.13
2019-02-21T07:15:52.273Z,54384.61
2019-02-21T07:18:22.890Z,54423.14
2019-02-21T07:20:53.433Z,54373.05
2019-02-21T07:23:23.947Z,54399.06
2019-02-21T07:25:58.142Z,54426.99
2019-02-21T07:28:28.608Z,54427.95
2019-02-21T07:30:59.199Z,54425.06
2019-02-21T07:33:29.653Z,54457.81
2019-02-21T07:36:00.127Z,54452.03
2019-02-21T07:38:30.651Z,54432.77
2019-02-21T07:41:01.211Z,54436.62
2019-02-21T07:43:32.395Z,54420.25
2019-02-21T07:46:03.007Z,54375.94
2019-02-21T07:48:33.532Z,54419.29
2019-02-21T07:51:04.190Z,54358.61
2019-02-21T07:53:34.722Z,54327.79
2019-02-21T07:56:05.332Z,54351.86
2019-02-21T07:58:35.860Z,54289.26
2019-02-21T08:01:06.407Z,54257.48
2019-02-21T08:03:44.157Z,54254.59
2019-02-21T08:06:09.368Z,54206.43
2019-02-21T08:08:40.024Z,54187.16
2019-02-21T08:11:11.394Z,54130.34
2019-02-21T08:13:42.263Z,54167.90
2019-02-21T08:16:13.093Z,54098.56
2019-02-21T08:18:43.586Z,54066.78
2019-02-21T08:21:14.163Z,54056.19
2019-02-21T08:23:50.512Z,54030.18
2019-02-21T08:27:39.511Z,54011.88
2019-02-21T08:30:13.910Z,53998.40
2019-02-21T08:33:02.197Z,53985.88
2019-02-21T08:35:32.956Z,53957.95
2019-02-21T08:38:03.645Z,53930.02
2019-02-21T08:40:34.239Z,53943.51
2019-02-21T08:43:04.811Z,53945.43
2019-02-21T08:45:36.049Z,53915.58
2019-02-21T08:48:06.626Z,53880.91
2019-02-21T08:50:37.246Z,53921.36
2019-02-21T08:53:07.810Z,53870.32
2019-02-21T08:55:40.391Z,53903.06
2019-02-21T08:58:10.695Z,53916.54
2019-02-21T09:00:41.557Z,53949.29
2019-02-21T09:03:12.495Z,53950.25
2019-02-21T09:05:43.226Z,53946.39
2019-02-21T09:08:16.526Z,53913.65
2019-02-21T09:10:46.476Z,53886.69
2019-02-21T09:13:17.045Z,53905.95
2019-02-21T09:15:48.305Z,53901.13
2019-02-21T09:18:18.868Z,53927.14
2019-02-21T09:20:49.519Z,53893.43
2019-02-21T09:23:20.080Z,53922.32
2019-02-21T09:25:50.689Z,53936.77
2019-02-21T09:28:21.283Z,53926.17
2019-02-21T09:30:51.843Z,53897.28
2019-02-21T09:33:22.415Z,53925.21
2019-02-21T09:35:53.303Z,53904.98
2019-02-21T09:38:23.857Z,53868.39
2019-02-21T09:40:54.502Z,53832.76
2019-02-21T09:43:25.070Z,53816.39
2019-02-21T09:45:55.718Z,53766.31
2019-02-21T09:48:26.292Z,53825.05
2019-02-21T09:50:57.212Z,53796.16
2019-02-21T09:53:28.113Z,53848.17
2019-02-21T09:55:59.248Z,53789.42
2019-02-21T09:58:29.830Z,53836.61
2019-02-21T10:01:00.455Z,53813.50
2019-02-21T10:03:31.013Z,53795.20
2019-02-21T10:06:01.713Z,53765.35
2019-02-21T10:08:32.465Z,53843.35
2019-02-21T10:11:03.067Z,53748.02
2019-02-21T10:13:33.619Z,53738.39
2019-02-21T10:16:04.998Z,53693.13
2019-02-21T10:18:35.681Z,53676.75
2019-02-21T10:21:06.303Z,53544.83
2019-02-21T10:23:36.914Z,53443.72
2019-02-21T10:26:07.575Z,53373.43
2019-02-21T10:28:38.296Z,53334.92
2019-02-21T10:31:09.241Z,53354.18
2019-02-21T10:33:46.935Z,53327.21
2019-02-21T10:36:12.442Z,53290.63
2019-02-21T10:38:43.643Z,53249.23
2019-02-21T10:41:14.187Z,53267.52
2019-02-21T10:43:45.030Z,53286.77
2019-02-21T10:46:16.438Z,53278.11
2019-02-21T10:48:47.045Z,53344.55
2019-02-21T10:51:17.619Z,53374.40
2019-02-21T10:53:48.191Z,53367.66
2019-02-21T10:56:18.763Z,53410.99
2019-02-21T10:58:49.360Z,53447.57
2019-02-21T11:01:20.311Z,53382.10
2019-02-21T11:03:50.885Z,53361.88
2019-02-21T11:06:21.469Z,53446.61
2019-02-21T11:08:52.016Z,53384.99
2019-02-21T11:11:22.652Z,53405.21
2019-02-21T11:13:53.201Z,53414.84
2019-02-21T11:16:24.031Z,53397.51
2019-02-21T11:18:54.599Z,53370.55
2019-02-21T11:21:25.267Z,53319.51
2019-02-21T11:23:55.833Z,53296.40
2019-02-21T11:26:26.866Z,53276.18
2019-02-21T11:28:57.412Z,53255.00
2019-02-21T11:31:28.422Z,53272.33
2019-02-21T11:33:58.986Z,53246.34
2019-02-21T11:36:29.621Z,53227.08
2019-02-21T11:39:00.308Z,53234.78
2019-02-21T11:41:30.907Z,53193.38
2019-02-21T11:44:01.451Z,53186.64
2019-02-21T11:46:32.067Z,53117.32
2019-02-21T11:49:02.600Z,53109.62
2019-02-21T11:51:33.224Z,53036.44
2019-02-21T11:54:03.769Z,52966.16
2019-02-21T11:56:34.437Z,52932.46
2019-02-21T11:59:04.970Z,52956.53
2019-02-21T12:01:35.653Z,52926.69
2019-02-21T12:04:06.529Z,52926.69
2019-02-21T12:06:37.097Z,53008.52
2019-02-21T12:09:11.113Z,53002.75
2019-02-21T12:11:42.006Z,53050.88
2019-02-21T12:14:12.895Z,52976.75
2019-02-21T12:16:43.460Z,53005.63
2019-02-21T12:19:14.052Z,52999.86
2019-02-21T12:21:44.629Z,53015.26
2019-02-21T12:24:15.511Z,53030.66
2019-02-21T12:26:46.083Z,53006.59
2019-02-21T12:29:16.687Z,52940.16
2019-02-21T12:31:47.268Z,52945.94
2019-02-21T12:34:18.146Z,52861.22
2019-02-21T12:36:48.701Z,52871.81
2019-02-21T12:39:19.553Z,52734.14
2019-02-21T12:41:50.119Z,52640.76
2019-02-21T12:44:20.827Z,52550.27
2019-02-21T12:46:51.404Z,52546.42
2019-02-21T12:49:22.067Z,52639.80
2019-02-21T12:51:52.937Z,52719.70
2019-02-21T12:54:24.770Z,52694.67
2019-02-21T12:56:55.570Z,52620.55
2019-02-21T12:59:26.216Z,52340.42
2019-02-21T13:01:56.755Z,52197.00
2019-02-21T13:04:27.754Z,52093.04
2019-02-21T13:06:58.414Z,51999.68
2019-02-21T13:09:28.956Z,52113.26
2019-02-21T13:11:59.500Z,52282.66
2019-02-21T13:14:30.062Z,52339.46
2019-02-21T13:17:00.718Z,52253.79
2019-02-21T13:19:31.294Z,52189.30
2019-02-21T13:22:01.897Z,52201.81
2019-02-21T13:24:32.786Z,52135.39
2019-02-21T13:27:03.462Z,52125.77
2019-02-21T13:29:34.042Z,52140.21
2019-02-21T13:32:04.712Z,52285.55
2019-02-21T13:34:35.263Z,52293.25
2019-02-21T13:37:06.278Z,52377.00
2019-02-21T13:39:37.073Z,52413.58
2019-02-21T13:42:08.131Z,52482.89
2019-02-21T13:44:38.711Z,52435.72
2019-02-21T13:47:09.315Z,52408.76
2019-02-21T13:49:39.888Z,52413.58
2019-02-21T13:52:10.785Z,52366.41
2019-02-21T13:54:41.357Z,52335.61
2019-02-21T13:57:11.920Z,52286.52
2019-02-21T13:59:42.851Z,52229.72
2019-02-21T14:02:15.391Z,52253.79
2019-02-21T14:04:46.177Z,52291.33
2019-02-21T14:07:16.754Z,52269.19
2019-02-21T14:09:47.379Z,52274.00
2019-02-21T14:12:18.025Z,52306.73
2019-02-21T14:14:48.632Z,52339.46
2019-02-21T14:17:19.212Z,52162.35
2019-02-21T14:19:50.173Z,51683.04
2019-02-21T14:22:21.078Z,51723.46
2019-02-21T14:24:51.667Z,51959.26
2019-02-21T14:27:22.544Z,52149.83
2019-02-21T14:29:53.135Z,52230.69
2019-02-21T14:32:23.695Z,52254.75
2019-02-21T14:34:54.298Z,52291.33
2019-02-21T14:37:24.883Z,52322.13
2019-02-21T14:39:55.586Z,52382.77
2019-02-21T14:42:26.148Z,52390.48
2019-02-21T14:44:56.842Z,52422.24
2019-02-21T14:47:27.699Z,52460.75
2019-02-21T14:49:58.266Z,52430.91
2019-02-21T14:52:28.891Z,52439.57
2019-02-21T14:54:59.544Z,52445.34
2019-02-21T14:57:40.150Z,52483.85
2019-02-21T15:00:02.877Z,52568.56
2019-02-21T15:02:33.490Z,52522.36
2019-02-21T15:05:04.240Z,52463.63
2019-02-21T15:07:35.168Z,52213.36
2019-02-21T15:10:06.013Z,52139.25
2019-02-21T15:12:36.643Z,51914.98
2019-02-21T15:15:08.813Z,51596.42
2019-02-21T15:17:39.399Z,51775.43
2019-02-21T15:20:12.370Z,51715.76
2019-02-21T15:22:42.935Z,52004.49
2019-02-21T15:25:13.870Z,51788.90
2019-02-21T15:27:44.438Z,51596.42
2019-02-21T15:30:17.746Z,51605.08
2019-02-21T15:32:48.624Z,51708.06
2019-02-21T15:35:19.727Z,52009.30
2019-02-21T15:37:50.566Z,52164.27
2019-02-21T15:40:21.394Z,52234.54
2019-02-21T15:42:52.925Z,52166.20
2019-02-21T15:45:24.375Z,52169.08
2019-02-21T15:47:55.176Z,52165.23
2019-02-21T15:50:25.791Z,52181.60
2019-02-21T15:52:56.515Z,52289.40
2019-02-21T15:55:27.179Z,52409.73
2019-02-21T15:58:03.875Z,52448.23
2019-02-21T16:00:30.325Z,52499.25
2019-02-21T16:03:00.929Z,52486.74
2019-02-21T16:05:31.815Z,52524.28
2019-02-21T16:08:02.407Z,52597.44
2019-02-21T16:10:33.034Z,52644.61
2019-02-21T16:13:05.038Z,52658.09
2019-02-21T16:15:35.915Z,52705.26
2019-02-21T16:18:06.592Z,52732.21
2019-02-21T16:20:37.184Z,52712.00
2019-02-21T16:23:08.062Z,52757.25
2019-02-21T16:25:38.654Z,52765.91
2019-02-21T16:28:09.227Z,52801.53
2019-02-21T16:30:39.798Z,52801.53
2019-02-21T16:33:10.377Z,52794.79
2019-02-21T16:35:40.970Z,52867.00
2019-02-21T16:38:11.540Z,52853.52
2019-02-21T16:40:42.216Z,52865.07
2019-02-21T16:43:12.821Z,52884.32
2019-02-21T16:45:47.160Z,52908.39
2019-02-21T16:48:15.798Z,52952.68
2019-02-21T16:50:48.506Z,52957.50
2019-02-21T16:53:19.045Z,52982.53
2019-02-21T16:55:49.749Z,52975.79
2019-02-21T16:58:20.305Z,53035.48
2019-02-21T17:00:55.922Z,53043.18
2019-02-21T17:03:23.238Z,53051.85
2019-02-21T17:05:54.618Z,53066.29
2019-02-21T17:08:25.195Z,53086.51
2019-02-21T17:10:56.126Z,53108.65
2019-02-21T17:13:27.607Z,53149.09
2019-02-21T17:15:58.170Z,53192.42
2019-02-21T17:18:28.746Z,53176.05
2019-02-21T17:20:59.315Z,53195.30
2019-02-21T17:23:29.895Z,53269.45
2019-02-21T17:26:00.440Z,53249.23
2019-02-21T17:28:31.379Z,53221.30
2019-02-21T17:31:02.386Z,53225.15
2019-02-21T17:33:33.069Z,53267.52
2019-02-21T17:36:03.667Z,53266.55
2019-02-21T17:38:34.298Z,53276.18
2019-02-21T17:41:04.861Z,53303.14
2019-02-21T17:43:35.466Z,53327.21
2019-02-21T17:46:06.035Z,53357.07
2019-02-21T17:48:36.516Z,53391.73
2019-02-21T17:51:07.081Z,53465.87
2019-02-21T17:53:37.993Z,53489.95
2019-02-21T17:56:08.559Z,53561.20
2019-02-21T17:58:39.091Z,53648.83
2019-02-21T18:01:09.700Z,53793.28
2019-02-21T18:03:40.276Z,53903.06
2019-02-21T18:06:11.105Z,54039.81
2019-02-21T18:08:42.077Z,54066.78
2019-02-21T18:11:12.797Z,54121.68
2019-02-21T18:13:43.378Z,54297.93
2019-02-21T18:16:14.020Z,54447.21
2019-02-21T18:18:44.571Z,54533.91
2019-02-21T18:21:15.157Z,54603.25
2019-02-21T18:23:45.702Z,54618.67
2019-02-21T18:26:21.070Z,54601.33
2019-02-21T18:28:51.624Z,54597.48
2019-02-21T18:31:22.292Z,54606.15
2019-02-21T18:33:52.834Z,54610.00
2019-02-21T18:36:24.110Z,54607.11
2019-02-21T18:38:55.075Z,54612.89
2019-02-21T18:41:25.741Z,54568.58
2019-02-21T18:43:56.716Z,54601.33
2019-02-21T18:46:27.320Z,54638.90
2019-02-21T18:48:57.873Z,54561.84
2019-02-21T18:51:28.470Z,54602.29
2019-02-21T18:53:59.351Z,54532.94
2019-02-21T18:56:29.981Z,54541.61
2019-02-21T18:59:00.534Z,54583.03
2019-02-21T19:01:31.665Z,54534.87
2019-02-21T19:04:02.239Z,54602.29
2019-02-21T19:06:32.874Z,54703.43
2019-02-21T19:09:04.223Z,54756.41
2019-02-21T19:11:35.229Z,54829.62
2019-02-21T19:14:05.871Z,54898.02
2019-02-21T19:16:36.466Z,54961.60
2019-02-21T19:19:07.349Z,55025.18
2019-02-21T19:21:38.324Z,55082.98
2019-02-21T19:24:08.913Z,55105.14
2019-02-21T19:26:40.209Z,55173.54
2019-02-21T19:29:10.820Z,55251.57
2019-02-21T19:31:42.019Z,55137.89
2019-02-21T19:34:12.979Z,55089.72
2019-02-21T19:36:43.732Z,55022.29
2019-02-21T19:39:14.756Z,54966.41
2019-02-21T19:41:45.335Z,54958.71
2019-02-21T19:44:15.914Z,54894.16
2019-02-21T19:46:46.471Z,54860.45
2019-02-21T19:49:17.077Z,54833.48
2019-02-21T19:51:47.853Z,54821.92
2019-02-21T19:54:18.425Z,54825.77
2019-02-21T19:56:49.094Z,54848.89
2019-02-21T19:59:19.687Z,54882.61
2019-02-21T20:01:50.872Z,54893.20
2019-02-21T20:04:21.508Z,54873.93
2019-02-21T20:06:52.397Z,54870.08
2019-02-21T20:09:23.597Z,54828.66
2019-02-21T20:11:54.193Z,54819.03
2019-02-21T20:14:24.823Z,54874.90
2019-02-21T20:16:55.492Z,54840.22
2019-02-21T20:19:26.333Z,54881.64
2019-02-21T20:21:57.230Z,54861.41
2019-02-21T20:24:28.126Z,54835.40
2019-02-21T20:27:00.325Z,54818.06
2019-02-21T20:29:31.549Z,54816.14
2019-02-21T20:32:02.140Z,54804.58
2019-02-21T20:34:33.421Z,54786.28
2019-02-21T20:37:04.346Z,54831.55
2019-02-21T20:39:34.979Z,54820.95
2019-02-21T20:42:05.548Z,54838.29
2019-02-21T20:44:36.214Z,54818.06
2019-02-21T20:47:06.830Z,54878.75
2019-02-21T20:49:37.786Z,54883.57
2019-02-21T20:52:08.415Z,54871.05
2019-02-21T20:54:39.100Z,54866.23
2019-02-21T20:57:09.741Z,54854.67
2019-02-21T20:59:40.306Z,54849.85
2019-02-21T21:02:10.902Z,54844.07
2019-02-21T21:04:42.120Z,54843.11
2019-02-21T21:07:12.689Z,54860.45
2019-02-21T21:09:43.350Z,54881.64
2019-02-21T21:12:13.899Z,54872.01
2019-02-21T21:14:44.491Z,54848.89
2019-02-21T21:17:15.078Z,54856.59
2019-02-21T21:19:45.740Z,54881.64
2019-02-21T21:22:16.622Z,54860.45
2019-02-21T21:24:47.230Z,54869.12
2019-02-21T21:27:18.183Z,54895.13
2019-02-21T21:29:48.807Z,54897.05
2019-02-21T21:32:19.376Z,54870.08
2019-02-21T21:34:50.040Z,54865.27
2019-02-21T21:37:20.622Z,54898.98
2019-02-21T21:39:51.246Z,54923.07
2019-02-21T21:42:21.814Z,54941.37
2019-02-21T21:44:52.476Z,54942.33
2019-02-21T21:47:23.019Z,54943.29
2019-02-21T21:49:53.974Z,54945.22
2019-02-21T21:52:24.547Z,54962.56
2019-02-21T21:54:55.405Z,54943.29
2019-02-21T21:57:26.291Z,54962.56
2019-02-21T21:59:56.947Z,54977.97
2019-02-21T22:02:27.796Z,54982.79
2019-02-21T22:04:59.445Z,55016.51
2019-02-21T22:07:30.005Z,54991.46
2019-02-21T22:10:00.609Z,55042.52
2019-02-21T22:12:31.163Z,55079.12
2019-02-21T22:15:01.766Z,55028.07
2019-02-21T22:17:32.332Z,55070.46
2019-02-21T22:20:03.270Z,55076.24
2019-02-21T22:22:33.846Z,55069.49
2019-02-21T22:25:04.657Z,55108.03
2019-02-21T22:27:35.240Z,55123.44
2019-02-21T22:30:06.498Z,55157.16
2019-02-21T22:32:37.122Z,55162.94
2019-02-21T22:35:08.082Z,55153.30
2019-02-21T22:37:38.675Z,55172.57
2019-02-21T22:40:11.351Z,55194.73
2019-02-21T22:42:42.273Z,55198.59
2019-02-21T22:45:12.934Z,55260.24
2019-02-21T22:47:43.518Z,55255.43
2019-02-21T22:50:15.675Z,55287.22
2019-02-21T22:52:46.262Z,55274.70
2019-02-21T22:55:16.912Z,55351.77
2019-02-21T22:57:47.638Z,55376.82
2019-02-21T23:01:26.379Z,55438.48
2019-02-21T23:04:57.311Z,55455.82
2019-02-21T23:08:10.056Z,55608.05
2019-02-21T23:10:40.998Z,55712.12
2019-02-21T23:13:11.981Z,55744.88
2019-02-21T23:15:42.599Z,55776.68
2019-02-21T23:18:13.168Z,55779.56
2019-02-21T23:20:43.954Z,55784.38
2019-02-21T23:23:14.528Z,55774.75
2019-02-21T23:25:45.398Z,55722.71
2019-02-21T23:28:16.270Z,55750.66
2019-02-21T23:30:47.055Z,55717.90
2019-02-21T23:33:17.629Z,55734.28
2019-02-21T23:35:48.280Z,55712.12
2019-02-21T23:38:18.949Z,55781.49
2019-02-21T23:40:49.939Z,55750.66
2019-02-21T23:43:20.590Z,55768.00
2019-02-21T23:45:51.468Z,55756.44
2019-02-21T23:48:22.064Z,55734.28
2019-02-21T23:50:52.905Z,55670.68
2019-02-21T23:53:23.545Z,55649.49
2019-02-21T23:55:54.115Z,55672.61
2019-02-21T23:58:24.803Z,55668.76
